Time;durP1;ratioP1;P1;durP2;ratioP2;P2;SDS_P1;SDS_P2;PMS_P1;PMS_P2;Temp;Humidity;BMP_temperature;BMP_pressure;BME280_temperature;BME280_humidity;BME280_pressure;Samples;Min_cycle;Max_cycle;Signal;HPM_P1;HPM_P2
2023/08/26 00:01:53;;;;;;;9.90;6.60;;;;;;;22.43;55.94;100461.91;105445;1252;60559;-66
2023/08/26 00:04:21;;;;;;;11.10;6.70;;;;;;;22.44;56.04;100461.85;105693;1254;60775;-67
2023/08/26 00:06:49;;;;;;;8.10;6.70;;;;;;;22.43;56.03;100458.23;105367;1253;64918;-67
2023/08/26 00:09:17;;;;;;;9.10;6.70;;;;;;;22.43;56.14;100462.98;105582;1256;60434;-66
2023/08/26 00:11:44;;;;;;;9.50;6.90;;;;;;;22.44;55.90;100466.93;105540;1253;63723;-65
2023/08/26 00:14:12;;;;;;;9.80;6.40;;;;;;;22.46;56.02;100462.82;105336;1258;60507;-65
2023/08/26 00:16:39;;;;;;;10.40;7.50;;;;;;;22.47;56.08;100463.40;105474;1258;60462;-65
2023/08/26 00:19:07;;;;;;;11.30;7.40;;;;;;;22.49;56.09;100467.70;105355;1251;64916;-68
2023/08/26 00:21:34;;;;;;;10.30;7.20;;;;;;;22.49;56.30;100470.58;105476;1253;60700;-65
2023/08/26 00:24:02;;;;;;;13.60;6.50;;;;;;;22.52;56.22;100468.50;105771;1253;62547;-64
2023/08/26 00:26:30;;;;;;;9.10;6.70;;;;;;;22.57;55.89;100469.77;105532;1257;60314;-64
2023/08/26 00:28:57;;;;;;;8.60;6.80;;;;;;;22.60;56.06;100469.73;105450;1252;60619;-67
2023/08/26 00:31:24;;;;;;;9.40;7.00;;;;;;;22.61;56.61;100468.01;105546;1253;64929;-66
2023/08/26 00:33:52;;;;;;;14.30;7.30;;;;;;;22.61;56.94;100467.18;105262;1253;61397;-66
2023/08/26 00:36:19;;;;;;;11.20;6.80;;;;;;;22.61;56.94;100468.78;105261;1253;63642;-65
2023/08/26 00:38:47;;;;;;;8.80;7.00;;;;;;;22.60;57.05;100469.60;105312;1253;60388;-61
2023/08/26 00:41:14;;;;;;;10.60;7.20;;;;;;;22.59;57.23;100467.92;105266;1253;60431;-68
2023/08/26 00:43:42;;;;;;;9.50;7.10;;;;;;;22.59;57.30;100467.45;105179;1258;65004;-65
2023/08/26 00:46:09;;;;;;;11.90;7.30;;;;;;;22.60;57.41;100469.92;105350;1253;61331;-67
2023/08/26 00:48:37;;;;;;;13.50;7.20;;;;;;;22.61;57.36;100473.27;105375;1257;63733;-59
2023/08/26 00:51:05;;;;;;;11.20;7.70;;;;;;;22.59;56.80;100471.46;105204;1253;60620;-58
2023/08/26 00:53:32;;;;;;;9.40;7.00;;;;;;;22.57;56.43;100469.23;105165;1258;60614;-63
2023/08/26 00:56:01;;;;;;;9.90;6.80;;;;;;;22.55;56.53;100471.73;106041;1256;63700;-61
2023/08/26 00:58:29;;;;;;;11.10;7.50;;;;;;;22.51;56.52;100470.23;105363;1253;61626;-62
2023/08/26 01:00:57;;;;;;;12.10;7.60;;;;;;;22.47;56.14;100471.08;106247;1251;63710;-58
2023/08/26 01:03:24;;;;;;;10.70;6.90;;;;;;;22.44;56.02;100476.30;105292;1252;60477;-60
2023/08/26 01:05:52;;;;;;;10.80;7.20;;;;;;;22.39;56.01;100474.95;105910;1258;60452;-60
2023/08/26 01:08:21;;;;;;;10.70;6.80;;;;;;;22.35;56.03;100472.63;105588;1253;64958;-58
2023/08/26 01:10:58;;;;;;;9.80;6.20;;;;;;;22.36;56.32;100470.98;105384;1257;60394;-59
2023/08/26 01:13:30;;;;;;;9.90;7.10;;;;;;;22.36;56.59;100465.20;105574;1253;63810;-59
2023/08/26 01:15:57;;;;;;;10.00;6.60;;;;;;;22.35;56.81;100461.36;105582;1253;60460;-59
2023/08/26 01:18:25;;;;;;;10.30;7.00;;;;;;;22.31;56.70;100460.34;105337;1258;61963;-60
2023/08/26 01:20:52;;;;;;;10.20;6.90;;;;;;;22.24;57.05;100459.71;105290;1258;64960;-58
2023/08/26 01:23:28;;;;;;;12.20;6.70;;;;;;;22.21;57.20;100459.90;105239;1254;61537;-59
2023/08/26 01:25:56;;;;;;;10.50;6.90;;;;;;;22.18;57.24;100455.39;105424;1253;63810;-60
2023/08/26 01:28:23;;;;;;;11.90;7.00;;;;;;;22.15;57.55;100457.84;105467;1253;61087;-58
2023/08/26 01:30:51;;;;;;;9.40;6.90;;;;;;;22.17;57.69;100454.63;105342;1253;61434;-58
2023/08/26 01:33:20;;;;;;;9.60;6.90;;;;;;;22.18;57.87;100454.40;105420;1253;63676;-58
2023/08/26 01:35:47;;;;;;;10.60;7.30;;;;;;;22.18;57.92;100455.51;105773;1253;61418;-58
2023/08/26 01:38:16;;;;;;;11.00;7.90;;;;;;;22.17;58.04;100455.79;105668;1253;74995;-60
2023/08/26 01:40:49;;;;;;;11.50;7.30;;;;;;;22.17;58.03;100456.20;105596;1253;60515;-60
2023/08/26 01:43:16;;;;;;;9.40;6.90;;;;;;;22.17;58.01;100454.30;106000;1254;61275;-61
2023/08/26 01:45:44;;;;;;;10.70;6.90;;;;;;;22.16;57.98;100452.95;105447;1259;65091;-60
2023/08/26 01:48:12;;;;;;;11.40;7.90;;;;;;;22.17;58.05;100451.42;105577;1257;61439;-61
2023/08/26 01:50:40;;;;;;;10.30;6.50;;;;;;;22.19;58.18;100448.58;105268;1256;62449;-59
2023/08/26 01:53:08;;;;;;;11.90;7.50;;;;;;;22.22;58.42;100449.42;105357;1257;60648;-59
2023/08/26 01:55:36;;;;;;;10.30;7.60;;;;;;;22.24;58.46;100449.31;105542;1259;59395;-59
2023/08/26 01:58:04;;;;;;;13.90;7.50;;;;;;;22.25;58.42;100447.26;105261;1253;63655;-61
2023/08/26 02:00:31;;;;;;;9.40;6.80;;;;;;;22.26;58.67;100445.79;105338;1258;61361;-64
2023/08/26 02:02:59;;;;;;;11.40;7.00;;;;;;;22.25;58.33;100447.88;105835;1253;63747;-62
2023/08/26 02:05:27;;;;;;;8.80;7.10;;;;;;;22.21;58.36;100444.96;105366;1255;60672;-62
2023/08/26 02:07:54;;;;;;;11.80;7.70;;;;;;;22.16;58.18;100441.70;105939;1258;60589;-65
2023/08/26 02:10:23;;;;;;;9.00;7.20;;;;;;;22.12;58.09;100443.23;105936;1253;64865;-64
2023/08/26 02:12:51;;;;;;;9.50;6.80;;;;;;;22.09;58.01;100444.13;105578;1253;61355;-62
2023/08/26 02:15:18;;;;;;;12.70;6.80;;;;;;;22.11;58.62;100440.84;105371;1255;63726;-65
2023/08/26 02:17:46;;;;;;;10.40;7.50;;;;;;;22.16;58.62;100440.08;105538;1253;60658;-67
2023/08/26 02:20:14;;;;;;;11.60;7.50;;;;;;;22.18;58.48;100442.06;105538;1259;60634;-64
2023/08/26 02:22:42;;;;;;;11.40;7.20;;;;;;;22.19;58.39;100438.64;105434;1253;64864;-66
2023/08/26 02:25:09;;;;;;;9.50;7.30;;;;;;;22.18;58.44;100436.73;105288;1253;62283;-63
2023/08/26 02:27:37;;;;;;;10.60;6.80;;;;;;;22.15;58.46;100434.51;105992;1253;71063;-59
2023/08/26 02:30:06;;;;;;;8.70;6.90;;;;;;;22.11;58.41;100436.41;105421;1253;60559;-58
2023/08/26 02:33:26;;;;;;;8.60;7.00;;;;;;;22.07;58.68;100437.56;105493;1253;60550;-61
2023/08/26 02:35:54;;;;;;;10.60;7.50;;;;;;;22.04;58.70;100439.80;105249;1253;65290;-60
2023/08/26 02:38:22;;;;;;;10.00;7.50;;;;;;;22.03;58.68;100440.54;105195;1253;61057;-58
2023/08/26 02:40:53;;;;;;;9.00;7.20;;;;;;;22.04;58.71;100443.35;105392;1253;62450;-57
2023/08/26 02:43:21;;;;;;;10.20;7.10;;;;;;;22.03;58.87;100444.59;105720;1253;60572;-60
2023/08/26 02:45:53;;;;;;;10.70;7.50;;;;;;;22.01;58.94;100443.25;105583;1253;60384;-61
2023/08/26 02:48:21;;;;;;;12.90;7.70;;;;;;;22.01;58.89;100437.35;105740;1253;64963;-61
2023/08/26 02:50:56;;;;;;;10.10;7.90;;;;;;;22.02;58.75;100437.86;105094;1258;60681;-59
2023/08/26 02:53:25;;;;;;;10.10;7.80;;;;;;;22.01;58.61;100433.89;105175;1259;63750;-60
2023/08/26 02:55:53;;;;;;;9.60;7.40;;;;;;;21.98;58.34;100430.90;104825;1267;60680;-63
2023/08/26 02:58:22;;;;;;;10.60;7.30;;;;;;;21.99;58.31;100432.55;105093;1256;60645;-68
2023/08/26 03:00:50;;;;;;;10.60;7.40;;;;;;;22.01;57.90;100434.59;104975;1262;66663;-72
2023/08/26 03:03:43;;;;;;;10.70;7.40;;;;;;;22.03;58.06;100433.45;105057;1259;61886;-60
2023/08/26 03:06:11;;;;;;;11.50;7.50;;;;;;;22.04;58.13;100434.98;105292;1259;62487;-59
2023/08/26 03:08:40;;;;;;;9.80;7.00;;;;;;;22.03;58.41;100435.27;105677;1256;60546;-60
2023/08/26 03:11:08;;;;;;;9.70;7.00;;;;;;;22.02;58.47;100434.36;104916;1256;60629;-67
2023/08/26 03:13:35;;;;;;;9.40;7.30;;;;;;;22.01;58.32;100435.75;105073;1256;64995;-68
2023/08/26 03:16:10;;;;;;;11.50;7.60;;;;;;;22.00;57.91;100436.73;105581;1258;61450;-67
2023/08/26 03:18:39;;;;;;;11.30;7.50;;;;;;;22.00;57.77;100430.88;104978;1256;63772;-68
2023/08/26 03:21:07;;;;;;;9.30;7.20;;;;;;;22.04;58.05;100428.75;105492;1259;60558;-66
2023/08/26 03:23:35;;;;;;;9.60;7.10;;;;;;;22.08;58.05;100429.07;105411;1253;60386;-68
2023/08/26 03:26:05;;;;;;;13.90;7.50;;;;;;;22.10;58.10;100430.89;105849;1253;64022;-63
2023/08/26 03:28:34;;;;;;;12.00;7.80;;;;;;;22.09;58.54;100432.70;104977;1253;61545;-65
2023/08/26 03:31:05;;;;;;;9.30;7.20;;;;;;;22.08;58.94;100433.85;105604;1254;63864;-63
2023/08/26 03:33:34;;;;;;;11.40;8.00;;;;;;;22.10;59.40;100436.05;105563;1253;60479;-65
2023/08/26 03:36:05;;;;;;;9.70;7.40;;;;;;;22.15;59.63;100433.75;105731;1253;60388;-61
2023/08/26 03:38:33;;;;;;;10.50;7.60;;;;;;;22.21;59.57;100433.71;105584;1258;64996;-62
2023/08/26 03:41:03;;;;;;;10.20;7.40;;;;;;;22.26;59.53;100436.83;105148;1258;61498;-66
2023/08/26 03:43:31;;;;;;;11.20;7.60;;;;;;;22.28;59.47;100442.10;105432;1258;62500;-65
2023/08/26 03:46:00;;;;;;;11.80;8.10;;;;;;;22.28;59.14;100445.69;105440;1259;60715;-65
2023/08/26 03:48:28;;;;;;;10.70;8.00;;;;;;;22.29;58.82;100443.30;105685;1253;60480;-62
2023/08/26 03:50:57;;;;;;;14.00;7.40;;;;;;;22.28;58.61;100440.98;105381;1258;65067;-61
2023/08/26 03:53:27;;;;;;;10.60;8.10;;;;;;;22.29;58.77;100442.19;105362;1262;62249;-61
2023/08/26 03:55:59;;;;;;;11.10;7.80;;;;;;;22.31;58.62;100442.26;105352;1259;66126;-57
2023/08/26 03:58:28;;;;;;;10.10;7.60;;;;;;;22.37;58.35;100448.27;105526;1254;60522;-61
2023/08/26 04:01:02;;;;;;;11.70;7.50;;;;;;;22.42;58.50;100444.73;105836;1259;60483;-62
2023/08/26 04:03:31;;;;;;;11.70;8.00;;;;;;;22.46;58.46;100439.48;105829;1253;66254;-57
2023/08/26 04:06:01;;;;;;;11.10;7.60;;;;;;;22.48;58.62;100434.77;105560;1259;68870;-60
2023/08/26 04:08:32;;;;;;;11.50;7.50;;;;;;;22.48;58.49;100430.58;105227;1258;62430;-59
2023/08/26 04:11:00;;;;;;;12.10;8.30;;;;;;;22.49;58.47;100424.92;105099;1253;60448;-67
2023/08/26 04:13:28;;;;;;;8.80;6.70;;;;;;;22.50;58.53;100418.92;109251;1253;58640;-63
2023/08/26 04:15:56;;;;;;;12.90;7.10;;;;;;;22.55;57.99;100420.33;109334;1253;65260;-69
2023/08/26 04:18:24;;;;;;;9.30;6.70;;;;;;;22.64;57.68;100420.15;105733;1257;61950;-60
2023/08/26 04:20:55;;;;;;;10.30;7.10;;;;;;;22.70;57.63;100421.12;105375;1257;63774;-68
2023/08/26 04:23:23;;;;;;;12.50;7.20;;;;;;;22.72;57.60;100419.18;105378;1259;60557;-65
2023/08/26 04:25:54;;;;;;;10.00;7.30;;;;;;;22.75;57.69;100420.48;105161;1253;60639;-67
2023/08/26 04:28:23;;;;;;;10.10;7.00;;;;;;;22.77;57.95;100415.28;105338;1253;64927;-61
2023/08/26 04:30:51;;;;;;;10.70;7.20;;;;;;;22.82;58.18;100409.52;105392;1257;61474;-62
2023/08/26 04:33:20;;;;;;;10.90;7.80;;;;;;;22.91;58.83;100407.80;105318;1255;64293;-62
2023/08/26 04:35:48;;;;;;;8.50;6.20;;;;;;;23.02;59.39;100401.39;105337;1257;60432;-68
2023/08/26 04:38:15;;;;;;;10.80;7.90;;;;;;;23.10;59.43;100400.27;107054;1256;60557;-62
2023/08/26 04:40:44;;;;;;;12.50;7.50;;;;;;;23.16;59.49;100397.17;105656;1255;65130;-63
2023/08/26 04:43:14;;;;;;;10.30;8.00;;;;;;;23.21;59.75;100392.71;105273;1258;61563;-68
2023/08/26 04:45:44;;;;;;;9.80;7.90;;;;;;;23.29;59.77;100386.56;105445;1252;62473;-65
2023/08/26 04:48:12;;;;;;;10.10;7.00;;;;;;;23.36;59.79;100388.83;105336;1253;60542;-63
2023/08/26 04:50:41;;;;;;;11.30;6.70;;;;;;;23.46;59.51;100395.48;105002;1256;60881;-66
2023/08/26 04:53:09;;;;;;;10.40;7.00;;;;;;;23.56;58.93;100399.56;105668;1254;65775;-58
2023/08/26 04:55:36;;;;;;;11.40;7.20;;;;;;;23.61;58.47;100399.77;105255;1260;60565;-57
2023/08/26 04:58:07;;;;;;;9.50;6.40;;;;;;;23.66;57.98;100399.48;105313;1257;62452;-58
2023/08/26 05:00:36;;;;;;;9.20;7.30;;;;;;;23.71;57.72;100398.39;105563;1253;60542;-54
2023/08/26 05:03:04;;;;;;;12.20;7.40;;;;;;;23.75;57.72;100400.21;105424;1258;60455;-56
2023/08/26 05:05:32;;;;;;;8.60;6.30;;;;;;;23.76;57.73;100398.43;105442;1257;63757;-55
2023/08/26 05:08:02;;;;;;;10.60;6.10;;;;;;;23.80;57.65;100395.90;105386;1260;61324;-57
2023/08/26 05:10:30;;;;;;;9.70;6.00;;;;;;;23.87;57.25;100393.02;105385;1258;62670;-60
2023/08/26 05:12:58;;;;;;;9.40;6.10;;;;;;;23.93;56.65;100393.66;105485;1256;60421;-60
2023/08/26 05:15:28;;;;;;;10.10;7.30;;;;;;;23.97;56.38;100391.63;105282;1254;60643;-60
2023/08/26 05:17:56;;;;;;;9.80;6.20;;;;;;;24.03;55.83;100390.91;105673;1251;63708;-59
2023/08/26 05:20:24;;;;;;;9.70;6.20;;;;;;;24.07;55.33;100392.64;105396;1253;61325;-60
2023/08/26 05:22:51;;;;;;;10.00;6.20;;;;;;;24.09;54.78;100390.89;105329;1253;63814;-60
2023/08/26 05:25:19;;;;;;;10.10;6.20;;;;;;;24.12;54.52;100389.04;105318;1253;60556;-59
2023/08/26 05:27:47;;;;;;;7.30;5.50;;;;;;;24.17;54.34;100387.73;105195;1257;60534;-59
2023/08/26 05:30:18;;;;;;;9.70;5.90;;;;;;;24.19;53.98;100387.39;105287;1259;65532;-58
2023/08/26 05:32:53;;;;;;;8.60;5.70;;;;;;;24.21;53.29;100381.80;105302;1256;60538;-57
2023/08/26 05:35:21;;;;;;;9.10;6.20;;;;;;;24.23;52.86;100377.90;105258;1257;62435;-60
2023/08/26 05:37:49;;;;;;;9.60;5.60;;;;;;;24.25;52.59;100375.28;105225;1255;60584;-61
2023/08/26 05:40:17;;;;;;;7.80;5.40;;;;;;;24.27;52.29;100367.37;105519;1257;60445;-59
2023/08/26 05:42:46;;;;;;;8.60;5.80;;;;;;;24.31;51.75;100366.54;105442;1253;64969;-62
2023/08/26 05:45:13;;;;;;;9.10;5.80;;;;;;;24.34;51.40;100365.23;106165;1255;61443;-63
2023/08/26 05:47:42;;;;;;;10.20;6.80;;;;;;;24.39;51.44;100363.15;106252;1257;64288;-61
2023/08/26 05:50:09;;;;;;;7.80;5.40;;;;;;;24.46;51.38;100367.34;106268;1257;60436;-61
2023/08/26 05:52:37;;;;;;;8.00;5.40;;;;;;;24.55;51.25;100369.20;105399;1259;60557;-60
2023/08/26 05:55:05;;;;;;;7.80;5.20;;;;;;;24.67;50.84;100365.30;105011;1258;64946;-61
2023/08/26 05:57:33;;;;;;;8.60;5.20;;;;;;;24.83;50.53;100362.71;107047;1256;60458;-60
2023/08/26 06:00:01;;;;;;;10.70;4.90;;;;;;;24.92;49.95;100359.84;105397;1259;63675;-61
2023/08/26 06:02:29;;;;;;;10.90;5.40;;;;;;;25.01;49.29;100366.98;105618;1256;60442;-59
2023/08/26 06:04:57;;;;;;;7.40;4.70;;;;;;;25.11;48.48;100367.23;108897;1256;58121;-60
2023/08/26 06:07:24;;;;;;;9.40;4.60;;;;;;;25.21;48.19;100367.97;105040;1260;64988;-59
2023/08/26 06:09:52;;;;;;;7.90;5.10;;;;;;;25.30;47.77;100370.08;105082;1256;61323;-59
2023/08/26 06:12:20;;;;;;;7.10;4.60;;;;;;;25.38;47.63;100373.20;106835;1257;63753;-60
2023/08/26 06:14:49;;;;;;;7.50;5.30;;;;;;;25.46;47.38;100372.27;105316;1256;282349;-58
2023/08/26 06:19:18;;;;;;;9.10;5.50;;;;;;;25.39;48.39;100373.27;102014;1292;601119;-57
2023/08/26 06:21:46;;;;;;;10.50;5.60;;;;;;;25.66;48.25;100374.10;104214;1267;59572;-56
2023/08/26 06:24:14;;;;;;;7.80;5.00;;;;;;;25.75;48.59;100373.76;104169;1267;59261;-61
2023/08/26 06:26:43;;;;;;;7.90;5.00;;;;;;;25.83;48.79;100372.36;105323;1270;72648;-60
2023/08/26 06:29:14;;;;;;;7.40;4.80;;;;;;;25.90;48.87;100370.04;104243;1267;61312;-58
2023/08/26 06:31:42;;;;;;;8.20;4.10;;;;;;;25.96;48.90;100374.52;105139;1267;62480;-60
2023/08/26 06:34:10;;;;;;;7.40;5.30;;;;;;;26.03;48.95;100373.15;104788;1267;310140;-59
2023/08/26 06:36:41;;;;;;;8.40;5.20;;;;;;;26.13;49.23;100372.24;104540;1264;59082;-61
2023/08/26 06:39:08;;;;;;;8.10;5.40;;;;;;;26.20;49.76;100371.40;104581;1264;62026;-58
2023/08/26 06:41:36;;;;;;;11.00;5.30;;;;;;;26.32;49.83;100373.37;104506;1267;60147;-59
2023/08/26 06:44:04;;;;;;;9.00;5.50;;;;;;;26.46;49.37;100372.40;108461;1264;63736;-62
2023/08/26 06:46:32;;;;;;;7.50;4.80;;;;;;;26.58;49.43;100373.04;108448;1264;57942;-59
2023/08/26 06:48:59;;;;;;;8.00;5.10;;;;;;;26.70;49.83;100373.70;106828;1263;59691;-57
2023/08/26 06:51:27;;;;;;;7.30;4.50;;;;;;;26.79;49.60;100372.52;104699;1270;64148;-58
2023/08/26 06:53:56;;;;;;;8.10;5.00;;;;;;;26.86;49.45;100371.48;105013;1261;61297;-58
2023/08/26 06:56:25;;;;;;;7.40;4.80;;;;;;;26.93;49.52;100370.89;105076;1264;63770;-58
2023/08/26 06:58:53;;;;;;;9.10;5.00;;;;;;;26.97;49.58;100357.83;105066;1263;59966;-59
2023/08/26 07:01:20;;;;;;;9.90;5.00;;;;;;;27.00;49.43;100358.48;104896;1261;59675;-61
2023/08/26 07:03:48;;;;;;;8.60;5.00;;;;;;;27.02;49.65;100356.38;104995;1260;64248;-59
2023/08/26 07:06:15;;;;;;;7.70;4.70;;;;;;;27.04;49.41;100353.69;105137;1261;61555;-62
2023/08/26 07:08:43;;;;;;;8.80;5.00;;;;;;;27.08;49.36;100358.57;104912;1261;63746;-60
2023/08/26 07:11:12;;;;;;;8.20;4.90;;;;;;;27.13;49.24;100360.58;104943;1260;59698;-60
2023/08/26 07:13:40;;;;;;;10.10;4.80;;;;;;;27.16;48.96;100364.45;105110;1260;59763;-60
2023/08/26 07:16:07;;;;;;;6.60;4.50;;;;;;;27.20;48.94;100369.67;104926;1264;64529;-60
2023/08/26 07:18:35;;;;;;;7.40;4.40;;;;;;;27.26;48.99;100370.45;104900;1260;61513;-60
2023/08/26 07:21:06;;;;;;;9.00;5.40;;;;;;;27.33;48.97;100370.70;104831;1261;62445;-64
2023/08/26 07:23:33;;;;;;;6.30;4.10;;;;;;;27.39;48.78;100372.68;105103;1263;59872;-61
2023/08/26 07:26:01;;;;;;;6.60;4.20;;;;;;;27.42;48.50;100371.73;105357;1267;59553;-59
2023/08/26 07:28:29;;;;;;;9.80;4.80;;;;;;;27.46;47.94;100371.81;105188;1257;63388;-60
2023/08/26 07:31:02;;;;;;;6.40;4.00;;;;;;;27.49;47.62;100375.98;105142;1261;61327;-59
2023/08/26 07:33:30;;;;;;;8.20;4.90;;;;;;;27.53;47.64;100376.63;105201;1263;62708;-63
2023/08/26 07:36:09;;;;;;;10.60;4.60;;;;;;;27.57;47.29;100374.88;105323;1262;59714;-60
2023/08/26 07:38:37;;;;;;;7.40;4.50;;;;;;;27.63;47.34;100372.69;105448;1260;59724;-61
2023/08/26 07:41:05;;;;;;;8.00;4.40;;;;;;;27.67;46.49;100371.10;105792;1261;64058;-60
2023/08/26 07:43:33;;;;;;;7.70;4.10;;;;;;;27.71;45.90;100367.73;105731;1257;61377;-60
2023/08/26 07:46:01;;;;;;;7.70;4.10;;;;;;;27.77;45.05;100364.56;105315;1260;63820;-61
2023/08/26 07:48:31;;;;;;;7.30;3.90;;;;;;;27.84;42.66;100365.35;105083;1260;59742;-59
2023/08/26 07:51:02;;;;;;;6.80;3.40;;;;;;;27.91;41.24;100363.86;106259;1261;59698;-60
2023/08/26 07:53:29;;;;;;;6.30;3.30;;;;;;;27.98;38.87;100359.08;105710;1257;64054;-58
2023/08/26 07:55:57;;;;;;;6.30;4.00;;;;;;;28.04;38.86;100357.63;105697;1254;61389;-57
2023/08/26 07:58:24;;;;;;;6.50;3.80;;;;;;;28.11;38.70;100356.15;105388;1254;63678;-59
2023/08/26 08:00:51;;;;;;;10.00;3.80;;;;;;;28.18;37.73;100352.14;105572;1257;59795;-58
2023/08/26 08:03:19;;;;;;;7.90;3.60;;;;;;;28.27;37.53;100354.53;105583;1254;59685;-59
2023/08/26 08:05:47;;;;;;;9.50;4.10;;;;;;;28.37;38.17;100358.44;105470;1257;64150;-61
2023/08/26 08:08:15;;;;;;;6.80;3.70;;;;;;;28.46;37.81;100356.41;105460;1253;62041;-58
2023/08/26 08:10:42;;;;;;;6.30;3.60;;;;;;;28.55;38.28;100350.34;105489;1259;62515;-59
2023/08/26 08:13:11;;;;;;;7.80;3.80;;;;;;;28.65;38.52;100345.18;105544;1253;59563;-60
2023/08/26 08:15:39;;;;;;;6.10;4.10;;;;;;;28.77;38.70;100339.16;105898;1257;59557;-57
2023/08/26 08:18:07;;;;;;;6.20;4.00;;;;;;;28.91;39.51;100333.88;105519;1255;64075;-57
2023/08/26 08:20:34;;;;;;;7.70;4.90;;;;;;;29.06;40.25;100331.08;105491;1254;62577;-58
2023/08/26 08:23:03;;;;;;;8.20;4.80;;;;;;;29.19;40.37;100327.02;105544;1257;62470;-57
2023/08/26 08:25:31;;;;;;;7.60;5.00;;;;;;;29.30;40.95;100328.92;105518;1253;61807;-58
2023/08/26 08:28:00;;;;;;;7.60;5.30;;;;;;;29.37;40.98;100323.61;105578;1257;59581;-59
2023/08/26 08:30:28;;;;;;;7.90;4.80;;;;;;;29.43;41.19;100320.77;105690;1253;62915;-60
2023/08/26 08:32:56;;;;;;;8.20;5.10;;;;;;;29.49;41.54;100317.74;105902;1257;60396;-58
2023/08/26 08:35:24;;;;;;;6.60;5.10;;;;;;;29.53;42.51;100320.94;105534;1253;63696;-60
2023/08/26 08:37:52;;;;;;;10.40;6.20;;;;;;;29.56;43.20;100326.80;105635;1253;59754;-57
2023/08/26 08:40:19;;;;;;;9.10;5.80;;;;;;;29.60;43.25;100329.34;105603;1253;59793;-59
2023/08/26 08:42:47;;;;;;;7.30;5.60;;;;;;;29.62;43.61;100324.38;106425;1253;64624;-57
2023/08/26 08:45:15;;;;;;;8.10;5.40;;;;;;;29.68;43.22;100329.00;105784;1258;62285;-61
2023/08/26 08:47:43;;;;;;;7.00;5.10;;;;;;;29.73;43.00;100330.10;105377;1254;63765;-60
2023/08/26 08:50:11;;;;;;;11.10;5.70;;;;;;;29.77;42.76;100325.09;105628;1253;59767;-59
2023/08/26 08:52:39;;;;;;;9.70;5.30;;;;;;;29.80;42.48;100319.11;105405;1257;59668;-59
2023/08/26 08:55:07;;;;;;;9.90;5.90;;;;;;;29.82;42.34;100315.77;105601;1254;64330;-60
2023/08/26 08:57:35;;;;;;;9.50;6.40;;;;;;;29.85;42.52;100313.52;105667;1252;61325;-59
2023/08/26 09:00:03;;;;;;;8.50;5.70;;;;;;;29.89;42.94;100309.39;105638;1254;63743;-59
2023/08/26 09:02:31;;;;;;;8.10;5.80;;;;;;;29.93;42.85;100307.77;105626;1253;59644;-59
2023/08/26 09:04:58;;;;;;;9.90;6.20;;;;;;;30.00;43.15;100308.16;105548;1252;59755;-60
2023/08/26 09:07:52;;;;;;;9.80;6.50;;;;;;;30.06;42.88;100302.70;105527;1253;62827;-58
2023/08/26 09:10:32;;;;;;;9.00;5.90;;;;;;;30.12;42.36;100304.23;105387;1254;61373;-59
2023/08/26 09:13:21;;;;;;;7.80;5.70;;;;;;;30.17;42.00;100306.46;104877;1263;63827;-60
2023/08/26 09:16:34;;;;;;;9.20;6.00;;;;;;;30.25;41.71;100307.96;104871;1252;60931;-60
2023/08/26 09:19:35;;;;;;;10.90;6.10;;;;;;;30.34;41.51;100302.02;105579;1260;60513;-60
2023/08/26 09:22:07;;;;;;;10.10;6.40;;;;;;;30.40;41.70;100299.66;105279;1253;64123;-60
2023/08/26 09:24:38;;;;;;;10.30;6.00;;;;;;;30.47;41.17;100296.52;105417;1261;60383;-60
2023/08/26 09:27:09;;;;;;;8.20;6.10;;;;;;;30.56;40.96;100294.43;105143;1253;63668;-59
2023/08/26 09:29:38;;;;;;;7.80;6.20;;;;;;;30.64;41.18;100295.20;105343;1253;59755;-59
2023/08/26 09:32:05;;;;;;;9.60;5.90;;;;;;;30.73;40.86;100293.70;105577;1253;60329;-58
2023/08/26 09:34:33;;;;;;;9.30;6.00;;;;;;;30.80;39.53;100297.52;105537;1259;64137;-57
2023/08/26 09:37:01;;;;;;;8.50;5.80;;;;;;;30.88;39.49;100292.30;105667;1254;62255;-60
2023/08/26 09:39:28;;;;;;;7.30;5.70;;;;;;;30.98;38.37;100283.91;105072;1263;63738;-59
2023/08/26 09:41:56;;;;;;;9.30;5.90;;;;;;;31.05;38.33;100278.48;105533;1253;59997;-59
2023/08/26 09:44:24;;;;;;;7.60;5.30;;;;;;;31.14;38.80;100277.23;105721;1253;59664;-59
2023/08/26 09:46:54;;;;;;;8.30;6.10;;;;;;;31.24;39.26;100271.91;105418;1253;64227;-59
2023/08/26 09:49:22;;;;;;;8.00;5.40;;;;;;;31.39;38.75;100267.64;105436;1254;60568;-58
2023/08/26 09:51:55;;;;;;;10.80;6.10;;;;;;;31.56;38.28;100269.11;105459;1254;63791;-59
2023/08/26 09:54:23;;;;;;;7.90;5.40;;;;;;;31.70;38.21;100267.30;105399;1257;60052;-59
2023/08/26 09:56:57;;;;;;;9.10;6.20;;;;;;;31.79;38.64;100268.16;105735;1253;59660;-57
2023/08/26 09:59:25;;;;;;;8.90;6.00;;;;;;;31.90;39.00;100265.80;104714;1270;64071;-60
2023/08/26 10:01:52;;;;;;;8.40;5.90;;;;;;;31.96;39.32;100264.08;105392;1253;61879;-60
2023/08/26 10:04:25;;;;;;;9.70;6.40;;;;;;;31.99;39.41;100265.61;105435;1257;62637;-60
2023/08/26 10:06:56;;;;;;;8.00;5.80;;;;;;;31.96;39.15;100269.20;105427;1260;59752;-59
2023/08/26 10:09:40;;;;;;;11.80;6.50;;;;;;;31.91;38.87;100270.59;105737;1253;59618;-59
2023/08/26 10:12:15;;;;;;;10.30;6.40;;;;;;;31.89;37.94;100276.90;105550;1253;62904;-60
2023/08/26 10:14:47;;;;;;;8.80;6.20;;;;;;;31.84;36.83;100276.66;105632;1253;61322;-60
2023/08/26 10:17:15;;;;;;;8.80;6.10;;;;;;;31.80;36.97;100279.91;105491;1254;63855;-61
2023/08/26 10:19:42;;;;;;;8.20;6.20;;;;;;;31.76;37.26;100285.58;105375;1254;59647;-60
2023/08/26 10:22:36;;;;;;;9.20;6.50;;;;;;;31.73;38.10;100282.61;105514;1253;59736;-60
2023/08/26 10:25:07;;;;;;;8.60;7.50;;;;;;;31.70;38.33;100282.71;105403;1253;62852;-59
2023/08/26 10:27:35;;;;;;;8.80;7.10;;;;;;;31.65;38.62;100284.05;105320;1255;61559;-59
2023/08/26 10:30:04;;;;;;;8.70;6.50;;;;;;;31.61;38.34;100282.84;105638;1257;63755;-59
2023/08/26 10:33:16;;;;;;;8.50;6.80;;;;;;;31.57;38.24;100282.84;105455;1257;60510;-59
2023/08/26 10:35:59;;;;;;;9.40;7.10;;;;;;;31.50;38.50;100282.93;105092;1264;60568;-59
2023/08/26 10:38:33;;;;;;;10.00;6.90;;;;;;;31.44;39.04;100286.15;105411;1253;65397;-60
2023/08/26 10:41:11;;;;;;;9.50;6.70;;;;;;;31.37;39.25;100288.83;105271;1260;60505;-58
2023/08/26 10:43:56;;;;;;;9.00;6.90;;;;;;;31.30;39.51;100288.75;105547;1254;63752;-57
2023/08/26 10:46:56;;;;;;;11.50;6.90;;;;;;;31.26;39.85;100290.08;105697;1254;60451;-59
2023/08/26 10:49:28;;;;;;;9.90;6.90;;;;;;;31.29;40.38;100288.85;105439;1253;60546;-59
2023/08/26 10:52:14;;;;;;;10.20;7.00;;;;;;;31.37;40.48;100291.23;105435;1253;63618;-58
2023/08/26 10:54:45;;;;;;;9.30;7.60;;;;;;;31.45;40.63;100286.65;105417;1256;60425;-58
2023/08/26 10:58:12;;;;;;;10.40;6.50;;;;;;;31.54;40.21;100282.92;105648;1253;62450;-57
2023/08/26 11:00:41;;;;;;;10.60;6.60;;;;;;;31.63;40.26;100278.88;105265;1254;60539;-60
2023/08/26 11:04:00;;;;;;;8.90;6.50;;;;;;;31.73;40.26;100272.27;105587;1257;60491;-62
2023/08/26 11:07:25;;;;;;;9.10;6.70;;;;;;;31.80;39.68;100265.66;104931;1264;63651;-61
2023/08/26 11:10:05;;;;;;;10.20;6.50;;;;;;;31.81;39.50;100267.02;105077;1253;61387;-59
2023/08/26 11:12:33;;;;;;;8.10;6.50;;;;;;;31.79;39.79;100265.11;105464;1253;63764;-62
2023/08/26 11:15:05;;;;;;;10.90;6.60;;;;;;;31.78;39.58;100267.55;105655;1256;60661;-59
2023/08/26 11:17:33;;;;;;;9.50;6.80;;;;;;;31.74;39.39;100269.18;105485;1253;60536;-59
2023/08/26 11:20:17;;;;;;;8.00;6.10;;;;;;;31.69;39.75;100267.59;105538;1253;64943;-57
2023/08/26 11:22:51;;;;;;;12.10;6.80;;;;;;;31.67;39.43;100262.09;105444;1254;61484;-61
2023/08/26 11:25:19;;;;;;;11.40;7.50;;;;;;;31.67;39.39;100261.55;105723;1253;63709;-60
2023/08/26 11:27:47;;;;;;;8.10;6.50;;;;;;;31.69;39.31;100261.98;105005;1253;60793;-58
2023/08/26 11:30:15;;;;;;;9.10;7.10;;;;;;;31.74;39.90;100264.45;105719;1256;60629;-58
2023/08/26 11:32:42;;;;;;;11.40;7.00;;;;;;;31.81;39.92;100260.45;105522;1253;63719;-61